createdAt,value
2019-03-29T00:00:22.327Z,80.10
2019-03-29T00:02:51.873Z,80.20
2019-03-29T00:05:21.480Z,80.20
2019-03-29T00:07:51.891Z,80.20
2019-03-29T00:10:21.492Z,80.40
2019-03-29T00:12:51.115Z,80.50
2019-03-29T00:15:20.807Z,80.40
2019-03-29T00:17:50.412Z,80.50
2019-03-29T00:20:20.216Z,80.50
2019-03-29T00:22:49.914Z,80.50
2019-03-29T00:25:19.562Z,80.80
2019-03-29T00:27:49.178Z,80.70
2019-03-29T00:30:18.814Z,80.80
2019-03-29T00:32:48.452Z,80.80
2019-03-29T00:35:18.093Z,80.90
2019-03-29T00:37:53.801Z,81.00
2019-03-29T00:41:03.965Z,80.80
2019-03-29T00:43:34.250Z,80.90
2019-03-29T00:46:03.871Z,81.00
2019-03-29T00:48:35.606Z,81.00
2019-03-29T00:51:04.550Z,81.20
2019-03-29T00:53:34.272Z,81.20
2019-03-29T00:56:03.800Z,81.20
2019-03-29T00:58:33.215Z,81.20
2019-03-29T01:01:02.748Z,81.10
2019-03-29T01:03:32.231Z,81.20
2019-03-29T01:06:01.797Z,81.20
2019-03-29T01:08:31.306Z,81.20
2019-03-29T01:11:00.739Z,81.10
2019-03-29T01:13:30.240Z,81.10
2019-03-29T01:15:59.759Z,81.10
2019-03-29T01:18:29.333Z,81.10
2019-03-29T01:20:58.880Z,81.10
2019-03-29T01:23:28.396Z,81.30
2019-03-29T01:25:57.796Z,81.10
2019-03-29T01:28:27.385Z,81.10
2019-03-29T01:30:56.875Z,81.10
2019-03-29T01:33:26.478Z,81.10
2019-03-29T01:35:55.948Z,81.20
2019-03-29T01:38:25.381Z,81.30
2019-03-29T01:40:54.800Z,81.30
2019-03-29T01:43:24.332Z,81.40
2019-03-29T01:45:53.823Z,81.40
2019-03-29T01:48:23.388Z,81.50
2019-03-29T01:50:52.990Z,81.60
2019-03-29T01:53:22.492Z,81.60
2019-03-29T01:55:52.087Z,81.60
2019-03-29T01:58:21.655Z,81.70
2019-03-29T02:00:51.172Z,81.80
2019-03-29T02:03:20.701Z,81.80
2019-03-29T02:05:50.190Z,81.70
2019-03-29T02:08:19.699Z,81.80
2019-03-29T02:10:49.582Z,82.50
2019-03-29T02:13:19.164Z,81.70
2019-03-29T02:15:49.160Z,81.90
2019-03-29T02:18:18.741Z,81.80
2019-03-29T02:20:48.304Z,81.80
2019-03-29T02:23:17.851Z,81.80
2019-03-29T02:25:47.508Z,81.90
2019-03-29T02:28:16.920Z,81.90
2019-03-29T02:30:46.420Z,81.90
2019-03-29T02:33:15.890Z,81.90
2019-03-29T02:35:45.351Z,81.90
2019-03-29T02:38:14.932Z,81.90
2019-03-29T02:40:44.416Z,82.00
2019-03-29T02:43:13.848Z,81.90
2019-03-29T02:45:43.417Z,82.00
2019-03-29T02:48:13.018Z,82.10
2019-03-29T02:50:42.577Z,82.00
2019-03-29T02:53:12.077Z,82.90
2019-03-29T02:55:41.660Z,82.20
2019-03-29T02:58:11.085Z,82.30
2019-03-29T03:00:40.453Z,82.30
2019-03-29T03:03:09.881Z,82.40
2019-03-29T03:05:39.293Z,82.50
2019-03-29T03:08:08.784Z,82.60
2019-03-29T03:10:38.322Z,82.30
2019-03-29T03:13:07.765Z,82.70
2019-03-29T03:15:37.203Z,82.70
2019-03-29T03:18:06.754Z,82.80
2019-03-29T03:20:36.308Z,83.70
2019-03-29T03:23:05.892Z,82.90
2019-03-29T03:25:35.438Z,82.90
2019-03-29T03:28:04.965Z,82.90
2019-03-29T03:30:34.512Z,82.90
2019-03-29T03:33:04.449Z,83.00
2019-03-29T03:35:33.986Z,82.90
2019-03-29T03:38:03.450Z,83.00
2019-03-29T03:40:33.062Z,83.00
2019-03-29T03:43:02.416Z,83.00
2019-03-29T03:45:31.968Z,82.90
2019-03-29T03:48:01.508Z,82.90
2019-03-29T03:50:41.179Z,83.70
2019-03-29T03:53:10.780Z,82.90
2019-03-29T03:55:40.277Z,83.00
2019-03-29T03:58:11.182Z,83.00
2019-03-29T04:00:57.016Z,83.10
2019-03-29T04:03:26.770Z,83.10
2019-03-29T04:05:56.455Z,83.20
2019-03-29T04:08:27.281Z,83.40
2019-03-29T04:10:56.868Z,83.30
2019-03-29T04:13:26.441Z,83.30
2019-03-29T04:15:55.938Z,83.50
2019-03-29T04:18:25.372Z,83.50
2019-03-29T04:20:54.864Z,83.50
2019-03-29T04:23:24.371Z,83.70
2019-03-29T04:26:12.866Z,83.80
2019-03-29T04:28:42.437Z,83.80
2019-03-29T04:31:11.945Z,83.90
2019-03-29T04:33:41.453Z,83.90
2019-03-29T04:36:11.037Z,84.10
2019-03-29T04:38:40.473Z,84.10
2019-03-29T04:41:09.925Z,84.20
2019-03-29T04:43:39.284Z,84.30
2019-03-29T04:46:08.749Z,84.30
2019-03-29T04:48:38.196Z,84.40
2019-03-29T04:51:07.802Z,84.40
2019-03-29T04:53:37.388Z,84.50
2019-03-29T04:56:06.916Z,85.20
2019-03-29T04:58:36.614Z,84.50
2019-03-29T05:01:06.290Z,84.50
2019-03-29T05:03:36.794Z,84.60
2019-03-29T05:06:06.352Z,84.70
2019-03-29T05:08:35.979Z,84.70
2019-03-29T05:11:05.498Z,84.70
2019-03-29T05:13:34.995Z,84.80
2019-03-29T05:16:04.685Z,85.00
2019-03-29T05:18:34.209Z,85.10
2019-03-29T05:21:03.695Z,85.10
2019-03-29T05:23:33.199Z,85.10
2019-03-29T05:26:02.814Z,85.20
2019-03-29T05:28:32.263Z,85.20
2019-03-29T05:31:01.800Z,85.20
2019-03-29T05:33:31.335Z,85.30
2019-03-29T05:36:00.907Z,85.30
2019-03-29T05:38:30.487Z,85.30
2019-03-29T05:40:59.913Z,85.30
2019-03-29T05:43:29.487Z,85.30
2019-03-29T05:45:59.083Z,85.30
2019-03-29T05:48:28.639Z,85.40
2019-03-29T05:50:58.235Z,85.40
2019-03-29T05:53:27.867Z,85.40
2019-03-29T05:55:57.339Z,85.40
2019-03-29T05:58:26.796Z,85.50
2019-03-29T06:00:56.372Z,85.50
2019-03-29T06:03:25.943Z,85.60
2019-03-29T06:05:55.552Z,85.60
2019-03-29T06:08:25.069Z,85.70
2019-03-29T06:10:54.574Z,85.80
2019-03-29T06:13:23.961Z,85.80
2019-03-29T06:15:53.443Z,85.90
2019-03-29T06:18:22.953Z,85.90
2019-03-29T06:20:52.352Z,86.00
2019-03-29T06:23:21.805Z,86.10
2019-03-29T06:25:51.183Z,86.10
2019-03-29T06:28:20.745Z,86.10
2019-03-29T06:30:50.351Z,86.10
2019-03-29T06:33:19.803Z,86.20
2019-03-29T06:35:49.423Z,86.20
2019-03-29T06:38:18.852Z,86.30
2019-03-29T06:44:19.918Z,86.20
2019-03-29T06:46:49.501Z,86.10
2019-03-29T06:49:18.936Z,86.10
2019-03-29T06:51:48.563Z,86.10
2019-03-29T06:54:18.019Z,86.10
2019-03-29T06:56:47.538Z,86.10
2019-03-29T06:59:17.180Z,86.10
2019-03-29T07:01:46.788Z,86.10
2019-03-29T07:04:16.269Z,86.10
2019-03-29T07:06:45.787Z,86.10
2019-03-29T07:12:50.340Z,85.90
2019-03-29T07:15:42.201Z,85.80
2019-03-29T07:18:11.737Z,85.70
2019-03-29T07:20:41.466Z,85.80
2019-03-29T07:23:10.957Z,85.60
2019-03-29T07:25:42.076Z,85.40
2019-03-29T07:28:11.477Z,85.40
2019-03-29T07:30:40.991Z,85.20
2019-03-29T07:33:10.528Z,85.10
2019-03-29T07:35:40.111Z,85.30
2019-03-29T07:38:09.779Z,84.90
2019-03-29T07:40:39.284Z,85.80
2019-03-29T07:43:08.816Z,84.80
2019-03-29T07:45:38.392Z,84.60
2019-03-29T07:48:07.904Z,84.40
2019-03-29T07:50:37.440Z,84.30
2019-03-29T07:53:07.040Z,84.20
2019-03-29T07:55:37.396Z,84.00
2019-03-29T07:58:07.088Z,83.90
2019-03-29T08:00:36.548Z,83.80
2019-03-29T08:03:06.099Z,83.60
2019-03-29T08:05:35.684Z,83.50
2019-03-29T08:08:05.192Z,83.40
2019-03-29T08:10:34.811Z,83.30
2019-03-29T08:13:04.352Z,83.20
2019-03-29T08:15:33.939Z,82.70
2019-03-29T08:18:03.552Z,81.60
2019-03-29T08:20:43.859Z,80.10
2019-03-29T08:23:04.191Z,78.50
2019-03-29T08:25:33.784Z,76.60
2019-03-29T08:28:03.353Z,74.80
2019-03-29T08:30:32.924Z,73.10
2019-03-29T08:33:02.422Z,71.40
2019-03-29T08:35:31.980Z,69.80
2019-03-29T08:38:01.521Z,68.70
2019-03-29T08:40:31.108Z,66.70
2019-03-29T08:43:00.692Z,65.50
2019-03-29T08:45:30.277Z,64.20
2019-03-29T08:47:59.771Z,63.10
2019-03-29T08:50:29.301Z,62.00
2019-03-29T08:52:58.853Z,61.10
2019-03-29T08:55:28.440Z,60.30
2019-03-29T08:57:57.968Z,59.60
2019-03-29T09:00:34.010Z,59.40
2019-03-29T09:03:03.497Z,59.00
2019-03-29T09:05:32.957Z,58.60
2019-03-29T09:08:05.311Z,58.40
2019-03-29T09:10:34.730Z,58.10
2019-03-29T09:13:04.793Z,57.90
2019-03-29T09:15:34.407Z,57.70
2019-03-29T09:18:04.013Z,57.60
2019-03-29T09:20:34.612Z,57.40
2019-03-29T09:23:04.369Z,57.10
2019-03-29T09:29:05.522Z,56.70
2019-03-29T09:31:35.159Z,56.40
2019-03-29T09:34:04.769Z,56.00
2019-03-29T09:36:34.401Z,55.60
2019-03-29T09:39:04.987Z,55.30
2019-03-29T09:41:34.622Z,55.10
2019-03-29T09:44:04.267Z,54.80
2019-03-29T09:46:33.870Z,54.50
2019-03-29T09:49:03.489Z,54.20
2019-03-29T09:51:35.895Z,54.00
2019-03-29T09:54:04.365Z,53.90
2019-03-29T09:56:39.264Z,53.70
2019-03-29T09:59:05.218Z,53.30
2019-03-29T10:01:35.350Z,53.60
2019-03-29T10:04:05.011Z,52.50
2019-03-29T10:06:34.695Z,52.10
2019-03-29T10:09:05.089Z,51.60
2019-03-29T10:11:34.694Z,51.10
2019-03-29T10:14:04.257Z,50.60
2019-03-29T10:16:33.882Z,50.10
2019-03-29T10:19:03.503Z,49.80
2019-03-29T10:21:34.285Z,49.50
2019-03-29T10:24:04.000Z,49.20
2019-03-29T10:26:33.565Z,49.00
2019-03-29T10:29:03.177Z,48.70
2019-03-29T10:31:33.011Z,48.50
2019-03-29T10:34:02.619Z,48.40
2019-03-29T10:36:32.241Z,48.30
2019-03-29T10:39:01.905Z,48.10
2019-03-29T10:41:34.584Z,47.90
2019-03-29T10:44:02.722Z,47.80
2019-03-29T10:46:32.297Z,47.80
2019-03-29T10:49:01.914Z,47.60
2019-03-29T10:51:31.457Z,47.50
2019-03-29T10:54:01.028Z,47.20
2019-03-29T10:56:34.337Z,47.10
2019-03-29T10:59:01.887Z,46.90
2019-03-29T11:01:31.507Z,46.80
2019-03-29T11:04:01.066Z,46.80
2019-03-29T11:06:30.653Z,46.60
2019-03-29T11:09:00.290Z,46.50
2019-03-29T11:11:29.808Z,46.50
2019-03-29T11:13:59.345Z,46.00
2019-03-29T11:16:28.977Z,45.90
2019-03-29T11:18:58.617Z,45.60
2019-03-29T11:21:28.203Z,45.50
2019-03-29T11:23:57.795Z,45.10
2019-03-29T11:26:27.425Z,45.60
2019-03-29T11:28:57.038Z,44.50
2019-03-29T11:31:26.718Z,44.10
2019-03-29T11:33:56.257Z,43.90
2019-03-29T11:36:25.958Z,43.70
2019-03-29T11:38:55.575Z,43.70
2019-03-29T11:41:25.192Z,43.30
2019-03-29T11:43:54.915Z,43.30
2019-03-29T11:46:24.511Z,43.20
2019-03-29T11:48:54.181Z,43.10
2019-03-29T11:51:23.875Z,43.00
2019-03-29T11:53:53.490Z,42.80
2019-03-29T11:56:23.067Z,42.60
2019-03-29T11:58:52.744Z,42.40
2019-03-29T12:01:22.446Z,42.30
2019-03-29T12:03:52.094Z,42.10
2019-03-29T12:06:21.705Z,41.70
2019-03-29T12:08:51.338Z,41.60
2019-03-29T12:11:20.936Z,41.40
2019-03-29T12:13:50.570Z,41.20
2019-03-29T12:16:20.185Z,40.90
2019-03-29T12:18:49.778Z,40.80
2019-03-29T12:21:19.312Z,40.60
2019-03-29T12:23:48.987Z,40.40
2019-03-29T12:26:18.621Z,40.30
2019-03-29T12:28:48.212Z,40.00
2019-03-29T12:31:18.059Z,39.90
2019-03-29T12:33:47.660Z,39.80
2019-03-29T12:36:17.386Z,39.60
2019-03-29T12:38:46.982Z,39.50
2019-03-29T12:41:16.605Z,39.40
2019-03-29T12:43:55.364Z,39.30
2019-03-29T12:46:17.478Z,39.30
2019-03-29T12:48:50.125Z,39.10
2019-03-29T12:51:18.401Z,39.00
2019-03-29T12:53:48.003Z,38.90
2019-03-29T12:56:17.601Z,38.80
2019-03-29T12:58:47.275Z,38.70
2019-03-29T13:01:16.815Z,38.50
2019-03-29T13:03:46.452Z,38.40
2019-03-29T13:06:16.101Z,38.20
2019-03-29T13:08:45.683Z,38.10
2019-03-29T13:11:15.203Z,37.70
2019-03-29T13:13:44.730Z,37.60
2019-03-29T13:16:14.440Z,37.70
2019-03-29T13:18:44.026Z,37.70
2019-03-29T13:21:13.544Z,37.40
2019-03-29T13:23:43.145Z,37.20
2019-03-29T13:26:12.666Z,37.10
2019-03-29T13:28:42.289Z,37.00
2019-03-29T13:31:12.060Z,36.80
2019-03-29T13:33:41.602Z,36.50
2019-03-29T13:36:11.152Z,36.40
2019-03-29T13:38:40.751Z,36.40
2019-03-29T13:41:10.341Z,36.30
2019-03-29T13:43:39.950Z,36.20
2019-03-29T13:46:09.565Z,36.10
2019-03-29T13:48:39.158Z,36.10
2019-03-29T13:51:08.701Z,36.20
2019-03-29T13:53:38.306Z,36.20
2019-03-29T13:56:07.926Z,36.10
2019-03-29T13:58:37.522Z,36.00
2019-03-29T14:01:07.191Z,35.50
2019-03-29T14:03:36.695Z,35.00
2019-03-29T14:06:06.321Z,35.30
2019-03-29T14:08:35.951Z,35.20
2019-03-29T14:11:05.575Z,35.10
2019-03-29T14:13:35.170Z,35.20
2019-03-29T14:16:04.762Z,35.00
2019-03-29T14:18:34.306Z,35.00
2019-03-29T14:21:03.909Z,35.40
2019-03-29T14:23:33.516Z,35.40
2019-03-29T14:26:03.106Z,35.30
2019-03-29T14:28:32.649Z,35.50
2019-03-29T14:31:02.280Z,35.50
2019-03-29T14:33:31.901Z,35.40
2019-03-29T14:36:01.497Z,35.30
2019-03-29T14:38:31.113Z,35.00
2019-03-29T14:41:00.726Z,34.90
2019-03-29T14:43:30.404Z,35.10
2019-03-29T14:46:00.017Z,35.10
2019-03-29T14:48:53.219Z,34.80
2019-03-29T14:51:22.712Z,34.50
2019-03-29T14:53:52.156Z,34.20
2019-03-29T14:56:21.725Z,34.10
2019-03-29T14:58:51.160Z,34.00
2019-03-29T15:01:20.512Z,33.90
2019-03-29T15:03:50.093Z,33.80
2019-03-29T15:06:19.692Z,33.80
2019-03-29T15:08:49.983Z,33.90
2019-03-29T15:11:22.635Z,34.20
2019-03-29T15:13:50.759Z,34.10
2019-03-29T15:16:20.232Z,34.20
2019-03-29T15:18:49.625Z,34.50
2019-03-29T15:21:19.195Z,34.60
2019-03-29T15:23:48.703Z,34.30
2019-03-29T15:26:18.206Z,34.20
2019-03-29T15:28:47.545Z,34.10
2019-03-29T15:31:17.071Z,34.20
2019-03-29T15:33:46.465Z,34.20
2019-03-29T15:36:15.911Z,34.20
2019-03-29T15:38:45.477Z,34.30
2019-03-29T15:41:14.982Z,34.30
2019-03-29T15:43:44.499Z,34.00
2019-03-29T15:46:14.090Z,33.80
2019-03-29T15:48:43.606Z,33.40
2019-03-29T15:51:13.133Z,33.30
2019-03-29T15:53:42.551Z,33.20
2019-03-29T15:56:12.140Z,33.20
2019-03-29T15:58:41.578Z,33.10
2019-03-29T16:01:11.159Z,33.00
2019-03-29T16:03:40.681Z,32.90
2019-03-29T16:06:10.094Z,32.80
2019-03-29T16:08:39.633Z,32.70
2019-03-29T16:11:09.517Z,32.70
2019-03-29T16:13:40.397Z,32.70
2019-03-29T16:16:09.935Z,32.90
2019-03-29T16:18:39.339Z,32.90
2019-03-29T16:21:08.765Z,33.00
2019-03-29T16:23:38.108Z,33.10
2019-03-29T16:26:07.539Z,33.20
2019-03-29T16:28:37.025Z,33.50
2019-03-29T16:31:06.604Z,33.80
2019-03-29T16:33:36.009Z,34.20
2019-03-29T16:36:05.440Z,34.10
2019-03-29T16:38:34.846Z,34.30
2019-03-29T16:41:04.249Z,34.40
2019-03-29T16:43:33.700Z,34.60
2019-03-29T16:46:03.196Z,34.90
2019-03-29T16:48:32.681Z,35.20
2019-03-29T16:51:02.194Z,35.50
2019-03-29T16:53:31.764Z,35.80
2019-03-29T16:56:01.282Z,35.90
2019-03-29T16:58:30.795Z,36.20
2019-03-29T17:01:00.385Z,36.50
2019-03-29T17:03:29.884Z,36.60
2019-03-29T17:05:59.310Z,36.90
2019-03-29T17:08:28.659Z,37.20
2019-03-29T17:10:58.145Z,38.20
2019-03-29T17:13:27.560Z,37.70
2019-03-29T17:16:02.162Z,37.90
2019-03-29T17:18:29.554Z,38.10
2019-03-29T17:20:59.323Z,38.50
2019-03-29T17:23:28.849Z,38.60
2019-03-29T17:25:58.428Z,38.80
2019-03-29T17:28:28.007Z,39.00
2019-03-29T17:31:00.067Z,39.10
2019-03-29T17:33:29.544Z,39.30
2019-03-29T17:35:59.367Z,40.00
2019-03-29T17:38:28.904Z,39.80
2019-03-29T17:40:58.394Z,40.00
2019-03-29T17:43:27.759Z,40.20
2019-03-29T17:45:57.251Z,40.50
2019-03-29T17:48:26.850Z,40.60
2019-03-29T17:50:56.307Z,40.90
2019-03-29T17:53:25.749Z,41.10
2019-03-29T17:55:55.177Z,41.40
2019-03-29T17:58:24.609Z,41.60
2019-03-29T18:00:54.128Z,41.90
2019-03-29T18:03:23.539Z,42.10
2019-03-29T18:05:53.115Z,42.40
2019-03-29T18:08:22.589Z,42.60
2019-03-29T18:10:52.060Z,43.00
2019-03-29T18:13:21.500Z,43.30
2019-03-29T18:15:51.012Z,43.60
2019-03-29T18:18:20.606Z,43.80
2019-03-29T18:20:50.102Z,44.00
2019-03-29T18:23:19.509Z,44.20
2019-03-29T18:25:49.008Z,44.50
2019-03-29T18:28:18.512Z,44.90
2019-03-29T18:30:47.917Z,45.10
2019-03-29T18:33:17.444Z,45.40
2019-03-29T18:35:46.966Z,45.50
2019-03-29T18:38:16.533Z,45.70
2019-03-29T18:40:46.045Z,45.90
2019-03-29T18:43:15.524Z,46.20
2019-03-29T18:45:44.905Z,47.00
2019-03-29T18:48:14.415Z,46.60
2019-03-29T18:50:43.900Z,46.80
2019-03-29T18:53:13.380Z,47.40
2019-03-29T18:55:42.975Z,47.20
2019-03-29T18:58:12.493Z,47.40
2019-03-29T19:00:42.010Z,47.50
2019-03-29T19:03:12.250Z,47.60
2019-03-29T19:05:41.864Z,47.70
2019-03-29T19:08:11.342Z,47.90
2019-03-29T19:10:40.843Z,48.10
2019-03-29T19:13:10.444Z,48.20
2019-03-29T19:15:40.008Z,48.40
2019-03-29T19:18:09.654Z,48.60
2019-03-29T19:20:39.247Z,48.70
2019-03-29T19:23:08.775Z,48.90
2019-03-29T19:25:38.331Z,49.00
2019-03-29T19:28:07.889Z,49.20
2019-03-29T19:30:37.456Z,49.40
2019-03-29T19:33:06.880Z,49.60
2019-03-29T19:35:36.464Z,49.70
2019-03-29T19:38:05.998Z,49.90
2019-03-29T19:40:35.657Z,50.10
2019-03-29T19:43:05.087Z,50.30
2019-03-29T19:45:34.671Z,50.50
2019-03-29T19:48:04.299Z,50.70
2019-03-29T19:50:33.773Z,50.90
2019-03-29T19:53:03.355Z,51.10
2019-03-29T19:55:32.803Z,51.20
2019-03-29T19:58:02.387Z,51.30
2019-03-29T20:00:39.692Z,51.60
2019-03-29T20:03:09.199Z,51.70
2019-03-29T20:05:38.760Z,51.90
2019-03-29T20:08:08.242Z,52.10
2019-03-29T20:10:37.595Z,52.30
2019-03-29T20:13:07.112Z,52.50
2019-03-29T20:15:36.588Z,52.70
2019-03-29T20:18:06.271Z,52.90
2019-03-29T20:20:35.752Z,53.10
2019-03-29T20:23:05.212Z,53.30
2019-03-29T20:25:34.655Z,53.50
2019-03-29T20:28:05.466Z,53.70
2019-03-29T20:30:34.967Z,53.90
2019-03-29T20:33:13.626Z,54.00
2019-03-29T20:35:43.229Z,54.10
2019-03-29T20:38:12.975Z,54.30
2019-03-29T20:40:42.407Z,54.40
2019-03-29T20:43:11.936Z,54.50
2019-03-29T20:45:41.544Z,54.70
2019-03-29T20:48:29.948Z,54.90
2019-03-29T20:50:59.556Z,55.00
2019-03-29T20:53:29.123Z,55.20
2019-03-29T20:55:58.582Z,55.30
2019-03-29T20:58:28.904Z,55.40
2019-03-29T21:00:58.415Z,55.70
2019-03-29T21:03:27.915Z,55.70
2019-03-29T21:05:57.427Z,55.90
2019-03-29T21:08:26.943Z,56.00
2019-03-29T21:10:56.669Z,56.20
2019-03-29T21:13:26.240Z,56.30
2019-03-29T21:15:55.772Z,56.50
2019-03-29T21:18:25.179Z,56.60
2019-03-29T21:21:03.897Z,56.70
2019-03-29T21:23:33.408Z,56.90
2019-03-29T21:26:02.927Z,57.00
2019-03-29T21:28:35.028Z,57.20
2019-03-29T21:31:03.663Z,57.30
2019-03-29T21:33:33.228Z,57.30
2019-03-29T21:36:02.755Z,57.50
2019-03-29T21:38:32.323Z,57.60
2019-03-29T21:41:01.813Z,57.80
2019-03-29T21:43:31.167Z,57.90
2019-03-29T21:46:00.732Z,58.00
2019-03-29T21:48:30.235Z,58.10
2019-03-29T21:50:59.721Z,58.10
2019-03-29T21:53:29.163Z,58.40
2019-03-29T21:55:58.721Z,58.50
2019-03-29T21:58:28.125Z,58.70
2019-03-29T22:00:57.607Z,58.80
2019-03-29T22:03:27.145Z,59.00
2019-03-29T22:05:56.767Z,59.20
2019-03-29T22:08:26.316Z,59.20
2019-03-29T22:10:55.788Z,59.40
2019-03-29T22:13:25.282Z,59.50
2019-03-29T22:15:54.739Z,59.70
2019-03-29T22:18:37.290Z,59.80
2019-03-29T22:20:55.439Z,60.00
2019-03-29T22:23:25.004Z,60.20
2019-03-29T22:25:54.564Z,60.40
2019-03-29T22:28:24.092Z,60.50
2019-03-29T22:30:53.576Z,60.70
2019-03-29T22:33:23.080Z,60.80
2019-03-29T22:35:52.576Z,61.00
2019-03-29T22:38:22.107Z,61.00
2019-03-29T22:40:51.607Z,61.30
2019-03-29T22:43:21.192Z,61.50
2019-03-29T22:45:50.775Z,61.80
2019-03-29T22:48:20.364Z,61.70
2019-03-29T22:50:49.999Z,61.80
2019-03-29T22:53:19.511Z,62.00
2019-03-29T22:55:48.992Z,62.20
2019-03-29T22:58:18.476Z,62.30
2019-03-29T23:00:51.427Z,62.50
2019-03-29T23:03:20.957Z,62.60
2019-03-29T23:05:50.532Z,62.80
2019-03-29T23:08:20.131Z,63.10
2019-03-29T23:10:49.722Z,63.20
2019-03-29T23:13:19.249Z,63.20
2019-03-29T23:15:48.729Z,63.40
2019-03-29T23:18:18.289Z,63.60
2019-03-29T23:20:47.902Z,63.70
2019-03-29T23:23:17.457Z,63.90
2019-03-29T23:25:47.367Z,64.00
2019-03-29T23:28:16.926Z,64.10
2019-03-29T23:30:46.555Z,64.30
2019-03-29T23:33:16.061Z,64.60
2019-03-29T23:35:45.708Z,64.70
2019-03-29T23:38:15.079Z,64.80
2019-03-29T23:40:44.652Z,65.00
2019-03-29T23:43:14.288Z,65.30
2019-03-29T23:45:43.636Z,65.40
2019-03-29T23:48:13.235Z,65.50
2019-03-29T23:50:42.815Z,65.70
2019-03-29T23:53:12.377Z,65.90
2019-03-29T23:55:41.719Z,66.00
2019-03-29T23:58:11.121Z,66.10
